createdAt,value
2022-12-14T00:01:49.552Z,12.33
2022-12-14T00:04:17.981Z,12.93
2022-12-14T00:06:46.118Z,12.07
2022-12-14T00:09:13.841Z,12.43
2022-12-14T00:11:41.590Z,12.23
2022-12-14T00:14:09.456Z,12.93
2022-12-14T00:16:38.654Z,13.97
2022-12-14T00:19:06.430Z,13.70
2022-12-14T00:21:34.369Z,12.67
2022-12-14T00:24:02.370Z,11.90
2022-12-14T00:26:31.931Z,13.37
2022-12-14T00:29:02.216Z,12.97
2022-12-14T00:31:33.169Z,12.33
2022-12-14T00:34:02.335Z,12.77
2022-12-14T00:36:31.448Z,12.47
2022-12-14T00:38:59.877Z,13.10
2022-12-14T00:41:27.723Z,12.23
2022-12-14T00:43:55.470Z,14.03
2022-12-14T00:46:23.284Z,12.47
2022-12-14T00:48:51.136Z,13.33
2022-12-14T00:51:20.237Z,12.37
2022-12-14T00:53:47.951Z,11.77
2022-12-14T00:56:15.658Z,12.27
2022-12-14T00:58:43.575Z,11.97
2022-12-14T01:01:13.532Z,12.03
2022-12-14T01:03:43.120Z,12.40
2022-12-14T01:06:15.573Z,12.87
2022-12-14T01:08:44.751Z,12.27
2022-12-14T01:11:13.306Z,13.17
2022-12-14T01:13:42.019Z,12.83
2022-12-14T01:16:11.301Z,12.90
2022-12-14T01:18:40.763Z,12.43
2022-12-14T01:21:16.285Z,12.17
2022-12-14T01:23:46.628Z,12.60
2022-12-14T01:26:16.441Z,13.07
2022-12-14T01:28:44.611Z,12.77
2022-12-14T01:31:14.432Z,12.93
2022-12-14T01:33:43.290Z,12.20
2022-12-14T01:36:14.342Z,11.87
2022-12-14T01:38:42.475Z,11.90
2022-12-14T01:41:26.477Z,11.83
2022-12-14T01:43:55.499Z,11.53
2022-12-14T01:46:29.212Z,11.43
2022-12-14T01:49:02.571Z,10.97
2022-12-14T01:51:32.534Z,11.60
2022-12-14T01:54:02.537Z,11.53
2022-12-14T01:56:33.439Z,10.70
2022-12-14T01:59:05.295Z,10.93
2022-12-14T02:01:33.344Z,11.40
2022-12-14T02:04:02.733Z,10.27
2022-12-14T02:06:35.878Z,10.67
2022-12-14T02:09:07.176Z,11.50
2022-12-14T02:11:45.146Z,10.20
2022-12-14T02:14:13.275Z,10.67
2022-12-14T02:16:42.228Z,10.40
2022-12-14T02:19:10.295Z,10.37
2022-12-14T02:21:59.756Z,10.10
2022-12-14T02:24:48.370Z,11.83
2022-12-14T02:28:03.777Z,28.23
2022-12-14T02:30:37.826Z,36.13
2022-12-14T02:33:20.673Z,40.60
2022-12-14T02:35:52.659Z,27.53
2022-12-14T02:38:38.770Z,15.27
2022-12-14T02:41:13.907Z,15.47
2022-12-14T02:43:50.358Z,17.50
2022-12-14T02:46:26.010Z,14.37
2022-12-14T02:49:00.236Z,13.93
2022-12-14T02:51:40.745Z,25.17
2022-12-14T02:54:14.808Z,16.90
2022-12-14T02:56:48.117Z,13.30
2022-12-14T02:59:17.258Z,12.37
2022-12-14T03:01:48.947Z,10.73
2022-12-14T03:04:18.079Z,10.77
2022-12-14T03:06:54.336Z,10.10
2022-12-14T03:09:22.189Z,10.30
2022-12-14T03:11:55.207Z,10.10
2022-12-14T03:14:28.256Z,9.53
2022-12-14T03:17:03.269Z,10.43
2022-12-14T03:19:36.373Z,10.30
2022-12-14T03:22:09.707Z,9.67
2022-12-14T03:24:42.085Z,9.53
2022-12-14T03:27:17.560Z,9.87
2022-12-14T03:29:50.729Z,9.63
2022-12-14T03:32:22.790Z,9.23
2022-12-14T03:34:56.394Z,9.43
2022-12-14T03:37:31.460Z,9.97
2022-12-14T03:39:59.431Z,9.50
2022-12-14T03:42:34.759Z,9.07
2022-12-14T03:45:07.596Z,8.50
2022-12-14T03:47:56.921Z,8.90
2022-12-14T03:50:29.184Z,8.67
2022-12-14T03:53:06.947Z,9.23
2022-12-14T03:55:42.480Z,8.40
2022-12-14T03:58:25.281Z,8.97
2022-12-14T04:00:58.847Z,8.63
2022-12-14T04:03:33.222Z,9.37
2022-12-14T04:06:06.812Z,7.90
2022-12-14T04:08:42.386Z,8.00
2022-12-14T04:11:32.948Z,7.70
2022-12-14T04:14:24.511Z,10.37
2022-12-14T04:17:12.525Z,19.97
2022-12-14T04:19:49.509Z,12.57
2022-12-14T04:22:22.245Z,8.77
2022-12-14T04:25:15.388Z,7.70
2022-12-14T04:27:46.907Z,7.33
2022-12-14T04:30:14.856Z,7.30
2022-12-14T04:32:47.229Z,7.67
2022-12-14T04:35:22.390Z,6.90
2022-12-14T04:37:53.525Z,7.67
2022-12-14T04:40:24.574Z,7.03
2022-12-14T04:42:56.273Z,7.47
2022-12-14T04:45:29.090Z,7.57
2022-12-14T04:48:04.239Z,7.63
2022-12-14T04:50:36.942Z,7.87
2022-12-14T04:53:11.136Z,6.83
2022-12-14T04:55:44.647Z,7.20
2022-12-14T04:58:17.757Z,7.37
2022-12-14T05:00:58.834Z,6.97
2022-12-14T05:03:31.634Z,7.30
2022-12-14T05:06:14.284Z,7.00
2022-12-14T05:08:58.293Z,7.57
2022-12-14T05:14:27.849Z,7.47
2022-12-14T05:16:56.388Z,7.50
2022-12-14T05:19:26.373Z,7.73
2022-12-14T05:21:56.312Z,7.50
2022-12-14T05:24:24.317Z,7.20
2022-12-14T05:26:52.178Z,7.67
2022-12-14T05:29:19.912Z,7.20
2022-12-14T05:31:49.533Z,7.53
2022-12-14T05:34:18.090Z,7.53
2022-12-14T05:36:45.910Z,7.60
2022-12-14T05:39:15.539Z,7.37
2022-12-14T05:41:43.803Z,7.27
2022-12-14T05:44:12.340Z,7.87
2022-12-14T05:46:40.066Z,8.20
2022-12-14T05:49:07.774Z,7.30
2022-12-14T05:51:36.337Z,7.87
2022-12-14T05:54:04.303Z,6.90
2022-12-14T05:56:33.479Z,8.07
2022-12-14T05:59:02.443Z,7.40
2022-12-14T06:01:30.291Z,7.53
2022-12-14T06:03:58.191Z,7.60
2022-12-14T06:06:26.069Z,7.17
2022-12-14T06:08:53.818Z,7.43
2022-12-14T06:11:23.631Z,7.37
2022-12-14T06:13:52.962Z,7.23
2022-12-14T06:16:23.696Z,7.97
2022-12-14T06:18:53.227Z,7.33
2022-12-14T06:21:23.538Z,7.53
2022-12-14T06:23:51.252Z,8.03
2022-12-14T06:26:19.271Z,7.47
2022-12-14T06:28:48.570Z,7.37
2022-12-14T06:31:19.873Z,7.03
2022-12-14T06:33:49.001Z,6.67
2022-12-14T06:36:23.525Z,6.60
2022-12-14T06:38:52.584Z,7.53
2022-12-14T06:41:21.621Z,6.93
2022-12-14T06:43:49.838Z,7.70
2022-12-14T06:46:21.243Z,7.93
2022-12-14T06:48:50.936Z,8.03
2022-12-14T06:51:18.890Z,8.00
2022-12-14T06:53:46.656Z,8.03
2022-12-14T06:56:17.509Z,8.03
2022-12-14T06:58:46.256Z,7.27
2022-12-14T07:01:15.610Z,7.80
2022-12-14T07:03:48.619Z,7.60
2022-12-14T07:06:16.683Z,7.23
2022-12-14T07:08:44.701Z,7.27
2022-12-14T07:11:14.860Z,7.00
2022-12-14T07:13:43.374Z,8.00
2022-12-14T07:16:14.828Z,7.50
2022-12-14T07:18:42.662Z,7.40
2022-12-14T07:21:13.700Z,6.60
2022-12-14T07:23:42.791Z,7.00
2022-12-14T07:26:14.226Z,7.83
2022-12-14T07:28:43.151Z,7.53
2022-12-14T07:31:14.800Z,7.30
2022-12-14T07:33:42.756Z,7.07
2022-12-14T07:36:14.162Z,7.40
2022-12-14T07:38:43.679Z,7.80
2022-12-14T07:41:16.542Z,8.30
2022-12-14T07:43:49.884Z,8.13
2022-12-14T07:46:20.103Z,7.90
2022-12-14T07:48:49.235Z,7.93
2022-12-14T07:51:20.572Z,7.47
2022-12-14T07:53:49.082Z,7.20
2022-12-14T07:56:19.386Z,7.73
2022-12-14T07:58:47.441Z,8.20
2022-12-14T08:01:17.243Z,7.80
2022-12-14T08:03:47.470Z,7.70
2022-12-14T08:06:16.444Z,7.50
2022-12-14T08:08:46.250Z,8.00
2022-12-14T08:11:14.822Z,7.33
2022-12-14T08:13:43.340Z,7.83
2022-12-14T08:16:13.446Z,7.57
2022-12-14T08:18:41.424Z,8.50
2022-12-14T08:21:12.491Z,8.63
2022-12-14T08:23:41.311Z,8.47
2022-12-14T08:26:10.418Z,8.73
2022-12-14T08:28:38.163Z,7.80
2022-12-14T08:31:07.493Z,8.83
2022-12-14T08:33:36.394Z,8.20
2022-12-14T08:36:09.562Z,8.47
2022-12-14T08:38:37.722Z,8.90
2022-12-14T08:41:06.233Z,9.20
2022-12-14T08:43:35.801Z,9.07
2022-12-14T08:46:04.681Z,9.30
2022-12-14T08:48:32.897Z,8.93
2022-12-14T08:51:04.349Z,9.20
2022-12-14T08:53:32.856Z,10.00
2022-12-14T08:56:05.955Z,9.43
2022-12-14T08:58:35.694Z,10.20
2022-12-14T09:01:05.188Z,9.80
2022-12-14T09:03:33.624Z,9.30
2022-12-14T09:06:05.479Z,11.03
2022-12-14T09:08:33.627Z,10.27
2022-12-14T09:11:01.903Z,10.77
2022-12-14T09:13:30.228Z,10.70
2022-12-14T09:16:02.332Z,10.60
2022-12-14T09:18:31.217Z,9.77
2022-12-14T09:20:59.366Z,10.53
2022-12-14T09:23:29.387Z,10.40
2022-12-14T09:26:01.811Z,10.70
2022-12-14T09:28:30.409Z,11.07
2022-12-14T09:31:01.351Z,10.70
2022-12-14T09:33:30.541Z,10.37
2022-12-14T09:36:03.127Z,10.07
2022-12-14T09:38:32.736Z,10.93
2022-12-14T09:41:07.090Z,10.93
2022-12-14T09:43:41.315Z,10.47
2022-12-14T09:46:22.303Z,10.00
2022-12-14T09:48:52.003Z,10.27
2022-12-14T09:51:22.296Z,10.30
2022-12-14T09:53:59.233Z,10.17
2022-12-14T09:56:29.864Z,10.23
2022-12-14T09:59:00.332Z,10.03
2022-12-14T10:04:53.631Z,9.63
2022-12-14T10:07:34.193Z,9.30
2022-12-14T10:10:05.918Z,9.77
2022-12-14T10:12:48.553Z,9.60
2022-12-14T10:15:25.582Z,10.73
2022-12-14T10:18:56.799Z,10.30
2022-12-14T10:21:12.844Z,9.80
2022-12-14T10:23:46.611Z,9.30
2022-12-14T10:26:19.834Z,9.87
2022-12-14T10:28:57.708Z,9.93
2022-12-14T10:31:35.963Z,8.73
2022-12-14T10:34:18.392Z,9.40
2022-12-14T10:36:53.834Z,9.33
2022-12-14T10:39:42.198Z,9.93
2022-12-14T10:42:24.691Z,9.13
2022-12-14T10:45:31.746Z,9.43
2022-12-14T10:47:54.246Z,10.03
2022-12-14T10:50:34.336Z,9.73
2022-12-14T10:53:05.786Z,9.37
2022-12-14T10:55:37.169Z,9.63
2022-12-14T10:58:05.123Z,9.77
2022-12-14T11:00:32.850Z,11.17
2022-12-14T11:03:01.070Z,9.93
2022-12-14T11:05:37.753Z,11.87
2022-12-14T11:08:07.180Z,9.83
2022-12-14T11:10:36.256Z,9.93
2022-12-14T11:13:06.855Z,9.60
2022-12-14T11:15:37.652Z,9.43
2022-12-14T11:18:20.245Z,9.30
2022-12-14T11:20:54.275Z,10.17
2022-12-14T11:23:26.132Z,11.53
2022-12-14T11:25:56.442Z,10.37
2022-12-14T11:28:36.513Z,10.13
2022-12-14T11:31:07.450Z,10.00
2022-12-14T11:33:40.191Z,14.17
2022-12-14T11:36:10.175Z,16.03
2022-12-14T11:38:38.208Z,10.13
2022-12-14T11:41:11.398Z,13.07
2022-12-14T11:43:39.763Z,16.63
2022-12-14T11:46:07.725Z,11.20
2022-12-14T11:48:38.356Z,10.43
2022-12-14T11:51:13.027Z,10.77
2022-12-14T11:53:41.787Z,9.77
2022-12-14T11:56:15.411Z,9.33
2022-12-14T11:58:49.732Z,9.07
2022-12-14T12:01:20.988Z,9.80
2022-12-14T12:03:51.204Z,9.27
2022-12-14T12:06:23.721Z,9.83
2022-12-14T12:08:56.850Z,9.93
2022-12-14T12:11:28.464Z,10.20
2022-12-14T12:14:00.594Z,10.40
2022-12-14T12:16:30.086Z,10.33
2022-12-14T12:19:09.635Z,9.97
2022-12-14T12:21:44.517Z,10.17
2022-12-14T12:24:19.863Z,9.70
2022-12-14T12:26:51.858Z,9.70
2022-12-14T12:29:27.342Z,9.50
2022-12-14T12:31:58.661Z,9.80
2022-12-14T12:34:31.336Z,10.10
2022-12-14T12:37:25.766Z,12.63
2022-12-14T12:39:59.783Z,12.13
2022-12-14T12:42:36.836Z,10.57
2022-12-14T12:45:09.526Z,9.57
2022-12-14T12:47:47.785Z,10.13
2022-12-14T12:50:17.679Z,9.97
2022-12-14T12:53:00.872Z,9.53
2022-12-14T12:55:32.534Z,9.67
2022-12-14T12:58:05.047Z,9.93
2022-12-14T13:00:34.709Z,9.40
2022-12-14T13:03:11.495Z,10.10
2022-12-14T13:05:47.382Z,9.87
2022-12-14T13:08:24.390Z,9.67
2022-12-14T13:11:25.074Z,10.10
2022-12-14T13:13:47.876Z,10.13
2022-12-14T13:16:26.208Z,9.87
2022-12-14T13:19:18.914Z,10.17
2022-12-14T13:21:52.269Z,10.77
2022-12-14T13:24:22.841Z,9.87
2022-12-14T13:27:17.125Z,9.97
2022-12-14T13:30:03.484Z,10.27
2022-12-14T13:32:46.865Z,10.00
2022-12-14T13:35:38.532Z,10.53
2022-12-14T13:38:33.754Z,10.60
2022-12-14T13:41:17.237Z,10.27
2022-12-14T13:44:02.707Z,10.03
2022-12-14T13:46:31.438Z,10.37
2022-12-14T13:49:03.758Z,10.00
2022-12-14T13:51:35.243Z,9.67
2022-12-14T13:54:06.824Z,10.40
2022-12-14T13:56:38.824Z,10.60
2022-12-14T13:59:27.748Z,10.63
2022-12-14T14:01:59.461Z,10.83
2022-12-14T14:04:29.609Z,11.33
2022-12-14T14:07:19.032Z,12.00
2022-12-14T14:10:00.296Z,12.73
2022-12-14T14:12:45.850Z,11.97
2022-12-14T14:15:29.188Z,11.30
2022-12-14T14:18:06.684Z,12.00
2022-12-14T14:20:40.606Z,11.00
2022-12-14T14:23:37.100Z,9.63
2022-12-14T14:26:18.600Z,10.80
2022-12-14T14:28:54.722Z,11.37
2022-12-14T14:31:22.546Z,10.70
2022-12-14T14:33:56.413Z,11.50
2022-12-14T14:36:30.313Z,12.83
2022-12-14T14:39:01.920Z,12.27
2022-12-14T14:41:37.119Z,11.70
2022-12-14T14:44:10.276Z,10.80
2022-12-14T14:46:43.489Z,10.97
2022-12-14T14:49:25.425Z,11.13
2022-12-14T14:51:53.130Z,11.20
2022-12-14T14:57:35.171Z,11.90
2022-12-14T15:00:06.999Z,11.57
2022-12-14T15:02:42.026Z,11.67
2022-12-14T15:05:41.476Z,11.27
2022-12-14T15:08:15.246Z,11.93
2022-12-14T15:10:45.974Z,11.03
2022-12-14T15:13:19.891Z,11.93
2022-12-14T15:15:52.908Z,12.03
2022-12-14T15:18:23.363Z,11.30
2022-12-14T15:20:57.005Z,12.37
2022-12-14T15:23:25.546Z,11.43
2022-12-14T15:25:58.169Z,11.47
2022-12-14T15:28:27.993Z,12.30
2022-12-14T15:30:58.511Z,11.57
2022-12-14T15:33:30.443Z,10.93
2022-12-14T15:36:04.734Z,13.03
2022-12-14T15:38:34.568Z,11.80
2022-12-14T15:41:05.801Z,12.63
2022-12-14T15:43:34.573Z,11.77
2022-12-14T15:46:03.951Z,12.07
2022-12-14T15:48:35.783Z,11.73
2022-12-14T15:51:06.120Z,11.00
2022-12-14T15:53:36.398Z,11.70
2022-12-14T15:56:17.497Z,11.43
2022-12-14T15:58:46.290Z,11.83
2022-12-14T16:01:22.256Z,11.73
2022-12-14T16:03:52.790Z,12.03
2022-12-14T16:06:21.289Z,11.33
2022-12-14T16:08:55.446Z,11.90
2022-12-14T16:11:26.395Z,11.67
2022-12-14T16:13:57.905Z,11.27
2022-12-14T16:16:27.221Z,12.20
2022-12-14T16:19:08.655Z,10.87
2022-12-14T16:21:47.482Z,12.50
2022-12-14T16:24:24.283Z,12.57
2022-12-14T16:26:58.115Z,11.40
2022-12-14T16:29:28.617Z,11.27
2022-12-14T16:32:06.847Z,10.50
2022-12-14T16:34:35.121Z,12.07
2022-12-14T16:37:31.589Z,11.53
2022-12-14T16:39:53.721Z,11.60
2022-12-14T16:42:23.798Z,11.90
2022-12-14T16:44:53.875Z,11.97
2022-12-14T16:47:29.015Z,11.23
2022-12-14T16:49:59.655Z,11.93
2022-12-14T16:52:30.749Z,11.20
2022-12-14T16:55:11.788Z,12.50
2022-12-14T16:57:42.309Z,12.63
2022-12-14T17:00:21.491Z,11.93
2022-12-14T17:02:57.529Z,11.63
2022-12-14T17:05:29.852Z,11.90
2022-12-14T17:08:01.045Z,12.53
2022-12-14T17:10:30.515Z,10.73
2022-12-14T17:12:59.386Z,11.30
2022-12-14T17:15:29.474Z,11.77
2022-12-14T17:18:10.520Z,11.37
2022-12-14T17:20:59.263Z,10.63
2022-12-14T17:23:35.124Z,11.67
2022-12-14T17:26:23.602Z,12.47
2022-12-14T17:28:52.030Z,12.17
2022-12-14T17:31:25.077Z,12.87
2022-12-14T17:33:57.751Z,12.40
2022-12-14T17:36:26.166Z,12.30
2022-12-14T17:39:13.021Z,11.97
2022-12-14T17:42:11.664Z,14.40
2022-12-14T17:45:12.830Z,12.77
2022-12-14T17:47:48.972Z,12.97
2022-12-14T17:50:30.977Z,13.10
2022-12-14T17:53:00.181Z,12.47
2022-12-14T17:55:29.739Z,12.93
2022-12-14T17:58:01.305Z,13.23
2022-12-14T18:01:00.143Z,12.70
2022-12-14T18:03:30.653Z,13.97
2022-12-14T18:06:02.945Z,13.43
2022-12-14T18:08:31.250Z,14.27
2022-12-14T18:11:01.383Z,13.17
2022-12-14T18:13:31.180Z,14.40
2022-12-14T18:16:00.418Z,14.40
2022-12-14T18:18:30.568Z,14.80
2022-12-14T18:21:02.502Z,15.00
2022-12-14T18:23:34.050Z,15.67
2022-12-14T18:26:05.156Z,15.50
2022-12-14T18:28:33.486Z,17.40
2022-12-14T18:31:05.270Z,16.37
2022-12-14T18:33:35.104Z,16.33
2022-12-14T18:36:05.306Z,16.73
2022-12-14T18:38:33.178Z,17.07
2022-12-14T18:41:03.378Z,17.17
2022-12-14T18:43:32.992Z,17.07
2022-12-14T18:46:01.907Z,17.30
2022-12-14T18:48:30.035Z,16.87
2022-12-14T18:50:57.911Z,16.97
2022-12-14T18:53:28.135Z,17.93
2022-12-14T18:55:56.375Z,17.23
2022-12-14T18:58:26.187Z,17.23
2022-12-14T19:00:56.809Z,16.40
2022-12-14T19:03:29.316Z,18.43
2022-12-14T19:06:26.740Z,18.57
2022-12-14T19:08:54.169Z,18.60
2022-12-14T19:11:31.486Z,17.30
2022-12-14T19:14:00.122Z,18.00
2022-12-14T19:16:28.395Z,16.40
2022-12-14T19:18:56.637Z,16.60
2022-12-14T19:21:25.362Z,17.80
2022-12-14T19:23:55.641Z,18.03
2022-12-14T19:26:24.638Z,18.77
2022-12-14T19:28:52.518Z,17.87
2022-12-14T20:05:57.662Z,17.47
2022-12-14T20:14:49.493Z,17.50
2022-12-14T20:49:53.747Z,19.53
2022-12-14T21:21:49.865Z,19.10
2022-12-14T21:37:50.534Z,18.67
2022-12-14T21:57:16.041Z,18.83
2022-12-14T22:26:37.983Z,22.00
2022-12-14T22:54:39.437Z,21.03
2022-12-14T22:57:11.021Z,20.90
2022-12-14T22:59:44.074Z,22.13
2022-12-14T23:02:12.163Z,21.13
2022-12-14T23:04:40.590Z,21.63
2022-12-14T23:07:08.404Z,21.40
2022-12-14T23:09:53.467Z,21.60
2022-12-14T23:12:40.082Z,20.97
2022-12-14T23:15:25.946Z,21.17
2022-12-14T23:18:14.022Z,20.90
2022-12-14T23:20:59.146Z,19.93
2022-12-14T23:23:44.371Z,20.80
2022-12-14T23:26:29.540Z,20.83
2022-12-14T23:29:16.132Z,21.50
2022-12-14T23:32:01.530Z,20.90
2022-12-14T23:34:47.921Z,20.80
2022-12-14T23:37:33.564Z,21.60
2022-12-14T23:40:18.731Z,21.13
2022-12-14T23:43:04.004Z,20.33
2022-12-14T23:45:50.753Z,20.43
2022-12-14T23:48:36.036Z,20.77
2022-12-14T23:51:21.779Z,22.83
2022-12-14T23:54:07.079Z,23.90
2022-12-14T23:56:53.004Z,21.37
2022-12-14T23:59:38.157Z,22.10
